Airfield :
LOGIN :

Register | Disclaimer

   EN    FR    IT 

 










Legend :    VFR   Marginal VFR   IFR   Intensive IFR   Very Intensive IFR
Visi :
Ceiling :
>= 8 km
>= 3000ft
5 to 8 km
1000 to 3000 ft
1500m to 5 km
500 to 1000 ft
800 to 1500m
200 to 500 ft
< 800m
< 200 ft
Symbols :   Thunderstorms  Fog  Heavy snow  Heavy precipitations  Wind > 20 kt
SIGMETs :     Misc.  Thunderstorms  Icing  Turbulence  Mountain Waves  Volcanic Ashes







- Airport Elevation : 138 ft
- IATA code : BIO


LEBB - Bilbao

CURRENT METAR :
  • 160400Z 11003KT 080V150 CAVOK 15/14 Q1018 NOSIG

EXPIRED METARs :
  • 160330Z 10005KT CAVOK 15/14 Q1018 NOSIG
  • 160300Z 10004KT CAVOK 15/14 Q1018 NOSIG
  • 160230Z AUTO 12004KT 9999 NCD 15/14 Q1019
  • 160200Z AUTO 13003KT 100V160 9999 NCD 15/14 Q1019
  • 160130Z AUTO 10003KT 9999 NCD 15/14 Q1019

TAF TAF LEBB
Valid from the 16 at 00:00 until the 17 at 00:00 UTC


152300Z 1600/1624 12003KT 9999 FEW030 TX27/1614Z TN14/1605Z
PROB30
TEMPO 1603/1607 3000 BR
TEMPO 1610/1620 32010KT
No reported NOTAMs for that airfield.



MET'MAP, your aeronautical weather chart ! - Copyright ORBIFLY December 2007 - Disclaimer

ORBIFLY MET'MAP TEAM :

Programming & Development : Alexandra Zaïnal
Concept & Development : Baudouin d'Aumeries
Co-Development & Prog : Marc-Olivier Méhu
Technical & hardware support : Manuel Goepfert

Contact : metmap@orbifly.com




SOURCES & CREDITS :

   NOAA